sensor_id;sensor_type;location;lat;lon;timestamp;temperature;humidity
19906;DHT22;10115;50.906;4.438;2023-07-22T00:00:48;16.30;99.90
19906;DHT22;10115;50.906;4.438;2023-07-22T00:03:13;16.30;99.90
19906;DHT22;10115;50.906;4.438;2023-07-22T00:05:40;16.30;99.90
19906;DHT22;10115;50.906;4.438;2023-07-22T00:08:05;16.30;99.90
19906;DHT22;10115;50.906;4.438;2023-07-22T00:10:31;16.30;99.90
19906;DHT22;10115;50.906;4.438;2023-07-22T00:12:57;16.30;99.90
19906;DHT22;10115;50.906;4.438;2023-07-22T00:15:22;16.40;99.90
19906;DHT22;10115;50.906;4.438;2023-07-22T00:17:49;16.30;99.90
19906;DHT22;10115;50.906;4.438;2023-07-22T00:20:16;16.30;99.90
19906;DHT22;10115;50.906;4.438;2023-07-22T00:22:42;16.30;99.90
19906;DHT22;10115;50.906;4.438;2023-07-22T00:25:09;16.40;99.90
19906;DHT22;10115;50.906;4.438;2023-07-22T00:27:41;16.30;99.90
19906;DHT22;10115;50.906;4.438;2023-07-22T00:30:07;16.30;99.90
19906;DHT22;10115;50.906;4.438;2023-07-22T00:32:33;16.20;99.90
19906;DHT22;10115;50.906;4.438;2023-07-22T00:34:59;16.30;99.90
19906;DHT22;10115;50.906;4.438;2023-07-22T00:37:25;16.30;99.90
19906;DHT22;10115;50.906;4.438;2023-07-22T00:39:51;16.30;99.90
19906;DHT22;10115;50.906;4.438;2023-07-22T00:42:16;16.40;99.90
19906;DHT22;10115;50.906;4.438;2023-07-22T00:44:42;16.30;99.90
19906;DHT22;10115;50.906;4.438;2023-07-22T00:47:08;16.30;99.90
19906;DHT22;10115;50.906;4.438;2023-07-22T00:49:35;16.30;99.90
19906;DHT22;10115;50.906;4.438;2023-07-22T00:52:02;16.30;99.90
19906;DHT22;10115;50.906;4.438;2023-07-22T00:54:28;16.20;99.90
19906;DHT22;10115;50.906;4.438;2023-07-22T00:56:55;16.20;99.90
19906;DHT22;10115;50.906;4.438;2023-07-22T00:59:21;16.20;99.90
19906;DHT22;10115;50.906;4.438;2023-07-22T01:01:47;16.30;99.90
19906;DHT22;10115;50.906;4.438;2023-07-22T01:04:14;16.20;99.90
19906;DHT22;10115;50.906;4.438;2023-07-22T01:06:42;16.20;99.90
19906;DHT22;10115;50.906;4.438;2023-07-22T01:09:09;16.20;99.90
19906;DHT22;10115;50.906;4.438;2023-07-22T01:11:35;16.20;99.90
19906;DHT22;10115;50.906;4.438;2023-07-22T01:14:01;16.20;99.90
19906;DHT22;10115;50.906;4.438;2023-07-22T01:16:27;16.00;99.90
19906;DHT22;10115;50.906;4.438;2023-07-22T01:18:54;15.90;99.90
19906;DHT22;10115;50.906;4.438;2023-07-22T01:21:22;15.90;99.90
19906;DHT22;10115;50.906;4.438;2023-07-22T01:23:48;15.90;99.90
19906;DHT22;10115;50.906;4.438;2023-07-22T01:26:14;15.90;99.90
19906;DHT22;10115;50.906;4.438;2023-07-22T01:28:40;15.90;99.90
19906;DHT22;10115;50.906;4.438;2023-07-22T01:31:06;15.90;99.90
19906;DHT22;10115;50.906;4.438;2023-07-22T01:33:32;15.80;99.90
19906;DHT22;10115;50.906;4.438;2023-07-22T01:35:58;15.70;99.90
19906;DHT22;10115;50.906;4.438;2023-07-22T01:38:23;15.70;99.90
19906;DHT22;10115;50.906;4.438;2023-07-22T01:40:49;15.70;99.90
19906;DHT22;10115;50.906;4.438;2023-07-22T01:43:14;15.60;99.90
19906;DHT22;10115;50.906;4.438;2023-07-22T01:45:40;15.70;99.90
19906;DHT22;10115;50.906;4.438;2023-07-22T01:48:06;15.70;99.90
19906;DHT22;10115;50.906;4.438;2023-07-22T01:50:32;15.50;99.90
19906;DHT22;10115;50.906;4.438;2023-07-22T01:52:57;15.50;99.90
19906;DHT22;10115;50.906;4.438;2023-07-22T01:55:23;15.30;99.90
19906;DHT22;10115;50.906;4.438;2023-07-22T01:57:49;15.30;99.90
19906;DHT22;10115;50.906;4.438;2023-07-22T02:00:15;15.20;99.90
19906;DHT22;10115;50.906;4.438;2023-07-22T02:02:43;15.10;99.90
19906;DHT22;10115;50.906;4.438;2023-07-22T02:05:09;15.00;99.90
19906;DHT22;10115;50.906;4.438;2023-07-22T02:07:38;15.00;99.90
19906;DHT22;10115;50.906;4.438;2023-07-22T02:10:04;14.90;99.90
19906;DHT22;10115;50.906;4.438;2023-07-22T02:12:30;14.90;99.90
19906;DHT22;10115;50.906;4.438;2023-07-22T02:14:56;14.90;99.90
19906;DHT22;10115;50.906;4.438;2023-07-22T02:17:22;14.80;99.90
19906;DHT22;10115;50.906;4.438;2023-07-22T02:19:49;14.90;99.90
19906;DHT22;10115;50.906;4.438;2023-07-22T02:22:14;14.80;99.90
19906;DHT22;10115;50.906;4.438;2023-07-22T02:24:40;14.80;99.90
19906;DHT22;10115;50.906;4.438;2023-07-22T02:27:06;14.80;99.90
19906;DHT22;10115;50.906;4.438;2023-07-22T02:29:34;14.80;99.90
19906;DHT22;10115;50.906;4.438;2023-07-22T02:32:00;14.70;99.90
19906;DHT22;10115;50.906;4.438;2023-07-22T02:34:26;14.70;99.90
19906;DHT22;10115;50.906;4.438;2023-07-22T02:36:52;14.60;99.90
19906;DHT22;10115;50.906;4.438;2023-07-22T02:39:17;14.70;99.90
19906;DHT22;10115;50.906;4.438;2023-07-22T02:41:43;14.60;99.90
19906;DHT22;10115;50.906;4.438;2023-07-22T02:44:09;14.60;99.90
19906;DHT22;10115;50.906;4.438;2023-07-22T02:46:34;14.60;99.90
19906;DHT22;10115;50.906;4.438;2023-07-22T02:49:00;14.60;99.90
19906;DHT22;10115;50.906;4.438;2023-07-22T02:51:26;14.50;99.90
19906;DHT22;10115;50.906;4.438;2023-07-22T02:53:52;14.50;99.90
19906;DHT22;10115;50.906;4.438;2023-07-22T02:56:17;14.50;99.90
19906;DHT22;10115;50.906;4.438;2023-07-22T02:58:43;14.50;99.90
19906;DHT22;10115;50.906;4.438;2023-07-22T03:01:09;14.50;99.90
19906;DHT22;10115;50.906;4.438;2023-07-22T03:03:36;14.50;99.90
19906;DHT22;10115;50.906;4.438;2023-07-22T03:06:02;14.50;99.90
19906;DHT22;10115;50.906;4.438;2023-07-22T03:08:29;14.50;99.90
19906;DHT22;10115;50.906;4.438;2023-07-22T03:10:55;14.50;99.90
19906;DHT22;10115;50.906;4.438;2023-07-22T03:13:21;14.40;99.90
19906;DHT22;10115;50.906;4.438;2023-07-22T03:15:47;14.40;99.90
19906;DHT22;10115;50.906;4.438;2023-07-22T03:18:12;14.40;99.90
19906;DHT22;10115;50.906;4.438;2023-07-22T03:20:39;14.30;99.90
19906;DHT22;10115;50.906;4.438;2023-07-22T03:23:05;14.40;99.90
19906;DHT22;10115;50.906;4.438;2023-07-22T03:25:32;14.40;99.90
19906;DHT22;10115;50.906;4.438;2023-07-22T03:28:02;14.40;99.90
19906;DHT22;10115;50.906;4.438;2023-07-22T03:30:28;14.40;99.90
19906;DHT22;10115;50.906;4.438;2023-07-22T03:32:54;14.40;99.90
19906;DHT22;10115;50.906;4.438;2023-07-22T03:35:20;14.30;99.90
19906;DHT22;10115;50.906;4.438;2023-07-22T03:37:45;14.30;99.90
19906;DHT22;10115;50.906;4.438;2023-07-22T03:40:11;14.30;99.90
19906;DHT22;10115;50.906;4.438;2023-07-22T03:42:45;14.30;99.90
19906;DHT22;10115;50.906;4.438;2023-07-22T03:45:11;14.30;99.90
19906;DHT22;10115;50.906;4.438;2023-07-22T03:47:37;14.20;99.90
19906;DHT22;10115;50.906;4.438;2023-07-22T03:50:03;14.30;99.90
19906;DHT22;10115;50.906;4.438;2023-07-22T03:52:29;14.30;99.90
19906;DHT22;10115;50.906;4.438;2023-07-22T03:54:55;14.40;99.90
19906;DHT22;10115;50.906;4.438;2023-07-22T03:57:25;14.40;99.90
19906;DHT22;10115;50.906;4.438;2023-07-22T03:59:53;14.40;99.90
19906;DHT22;10115;50.906;4.438;2023-07-22T04:02:18;14.40;99.90
19906;DHT22;10115;50.906;4.438;2023-07-22T04:04:44;14.40;99.90
19906;DHT22;10115;50.906;4.438;2023-07-22T04:07:09;14.40;99.90
19906;DHT22;10115;50.906;4.438;2023-07-22T04:09:35;14.40;99.90
19906;DHT22;10115;50.906;4.438;2023-07-22T04:12:01;14.40;99.90
19906;DHT22;10115;50.906;4.438;2023-07-22T04:14:27;14.30;99.90
19906;DHT22;10115;50.906;4.438;2023-07-22T04:16:52;14.40;99.90
19906;DHT22;10115;50.906;4.438;2023-07-22T04:19:18;14.40;99.90
19906;DHT22;10115;50.906;4.438;2023-07-22T04:21:43;14.50;99.90
19906;DHT22;10115;50.906;4.438;2023-07-22T04:24:09;14.50;99.90
19906;DHT22;10115;50.906;4.438;2023-07-22T04:26:36;14.40;99.90
19906;DHT22;10115;50.906;4.438;2023-07-22T04:29:01;14.40;99.90
19906;DHT22;10115;50.906;4.438;2023-07-22T04:31:27;14.40;99.90
19906;DHT22;10115;50.906;4.438;2023-07-22T04:33:53;14.50;99.90
19906;DHT22;10115;50.906;4.438;2023-07-22T04:36:18;14.50;99.90
19906;DHT22;10115;50.906;4.438;2023-07-22T04:38:44;14.60;99.90
19906;DHT22;10115;50.906;4.438;2023-07-22T04:41:10;14.60;99.90
19906;DHT22;10115;50.906;4.438;2023-07-22T04:43:35;14.60;99.90
19906;DHT22;10115;50.906;4.438;2023-07-22T04:46:01;14.60;99.90
19906;DHT22;10115;50.906;4.438;2023-07-22T04:48:26;14.60;99.90
19906;DHT22;10115;50.906;4.438;2023-07-22T04:50:52;14.60;99.90
19906;DHT22;10115;50.906;4.438;2023-07-22T04:53:18;14.60;99.90
19906;DHT22;10115;50.906;4.438;2023-07-22T04:55:44;14.60;99.90
19906;DHT22;10115;50.906;4.438;2023-07-22T04:58:10;14.50;99.90
19906;DHT22;10115;50.906;4.438;2023-07-22T05:00:36;14.50;99.90
19906;DHT22;10115;50.906;4.438;2023-07-22T05:03:03;14.50;99.90
19906;DHT22;10115;50.906;4.438;2023-07-22T05:05:29;14.50;99.90
19906;DHT22;10115;50.906;4.438;2023-07-22T05:07:54;14.60;99.90
19906;DHT22;10115;50.906;4.438;2023-07-22T05:10:20;14.50;99.90
19906;DHT22;10115;50.906;4.438;2023-07-22T05:12:46;14.50;99.90
19906;DHT22;10115;50.906;4.438;2023-07-22T05:15:12;14.50;99.90
19906;DHT22;10115;50.906;4.438;2023-07-22T05:17:39;14.40;99.90
19906;DHT22;10115;50.906;4.438;2023-07-22T05:20:05;14.40;99.90
19906;DHT22;10115;50.906;4.438;2023-07-22T05:22:39;14.40;99.90
19906;DHT22;10115;50.906;4.438;2023-07-22T05:25:05;14.40;99.90
19906;DHT22;10115;50.906;4.438;2023-07-22T05:27:32;14.50;99.90
19906;DHT22;10115;50.906;4.438;2023-07-22T05:29:57;14.60;99.90
19906;DHT22;10115;50.906;4.438;2023-07-22T05:32:23;14.70;99.90
19906;DHT22;10115;50.906;4.438;2023-07-22T05:34:49;14.80;99.90
19906;DHT22;10115;50.906;4.438;2023-07-22T05:37:14;14.80;99.90
19906;DHT22;10115;50.906;4.438;2023-07-22T05:39:40;14.80;99.90
19906;DHT22;10115;50.906;4.438;2023-07-22T05:42:06;14.70;99.90
19906;DHT22;10115;50.906;4.438;2023-07-22T05:44:32;14.80;99.90
19906;DHT22;10115;50.906;4.438;2023-07-22T05:46:57;15.00;99.90
19906;DHT22;10115;50.906;4.438;2023-07-22T05:49:23;15.00;99.90
19906;DHT22;10115;50.906;4.438;2023-07-22T05:51:49;14.90;99.90
19906;DHT22;10115;50.906;4.438;2023-07-22T05:54:15;14.90;99.90
19906;DHT22;10115;50.906;4.438;2023-07-22T05:56:40;14.90;99.90
19906;DHT22;10115;50.906;4.438;2023-07-22T05:59:07;15.00;99.90
19906;DHT22;10115;50.906;4.438;2023-07-22T06:01:32;15.20;99.90
19906;DHT22;10115;50.906;4.438;2023-07-22T06:03:58;15.30;99.90
19906;DHT22;10115;50.906;4.438;2023-07-22T06:06:24;15.20;99.90
19906;DHT22;10115;50.906;4.438;2023-07-22T06:08:49;15.10;99.90
19906;DHT22;10115;50.906;4.438;2023-07-22T06:11:15;15.30;99.90
19906;DHT22;10115;50.906;4.438;2023-07-22T06:13:41;15.30;99.90
19906;DHT22;10115;50.906;4.438;2023-07-22T06:16:06;15.40;99.90
19906;DHT22;10115;50.906;4.438;2023-07-22T06:18:32;15.40;99.90
19906;DHT22;10115;50.906;4.438;2023-07-22T06:20:58;15.50;99.90
19906;DHT22;10115;50.906;4.438;2023-07-22T06:23:23;15.60;99.90
19906;DHT22;10115;50.906;4.438;2023-07-22T06:25:49;15.70;99.90
19906;DHT22;10115;50.906;4.438;2023-07-22T06:28:15;15.80;99.90
19906;DHT22;10115;50.906;4.438;2023-07-22T06:30:40;15.80;99.90
19906;DHT22;10115;50.906;4.438;2023-07-22T06:33:06;15.70;99.90
19906;DHT22;10115;50.906;4.438;2023-07-22T06:35:32;15.70;99.90
19906;DHT22;10115;50.906;4.438;2023-07-22T06:37:57;15.60;99.90
19906;DHT22;10115;50.906;4.438;2023-07-22T06:40:24;15.50;99.90
19906;DHT22;10115;50.906;4.438;2023-07-22T06:42:50;15.50;99.90
19906;DHT22;10115;50.906;4.438;2023-07-22T06:45:16;15.40;99.90
19906;DHT22;10115;50.906;4.438;2023-07-22T06:47:42;15.50;99.90
19906;DHT22;10115;50.906;4.438;2023-07-22T06:50:07;15.50;99.90
19906;DHT22;10115;50.906;4.438;2023-07-22T06:52:33;15.70;99.90
19906;DHT22;10115;50.906;4.438;2023-07-22T06:54:59;15.80;99.90
19906;DHT22;10115;50.906;4.438;2023-07-22T06:57:25;15.70;99.90
19906;DHT22;10115;50.906;4.438;2023-07-22T06:59:53;15.70;99.90
19906;DHT22;10115;50.906;4.438;2023-07-22T07:02:19;15.70;99.90
19906;DHT22;10115;50.906;4.438;2023-07-22T07:04:45;15.80;99.90
19906;DHT22;10115;50.906;4.438;2023-07-22T07:07:12;15.90;99.90
19906;DHT22;10115;50.906;4.438;2023-07-22T07:09:38;16.00;99.90
19906;DHT22;10115;50.906;4.438;2023-07-22T07:12:04;15.80;99.90
19906;DHT22;10115;50.906;4.438;2023-07-22T07:14:30;15.90;99.90
19906;DHT22;10115;50.906;4.438;2023-07-22T07:16:55;16.00;99.90
19906;DHT22;10115;50.906;4.438;2023-07-22T07:19:21;16.00;99.90
19906;DHT22;10115;50.906;4.438;2023-07-22T07:21:47;16.10;99.90
19906;DHT22;10115;50.906;4.438;2023-07-22T07:24:12;16.40;99.90
19906;DHT22;10115;50.906;4.438;2023-07-22T07:26:38;16.60;99.90
19906;DHT22;10115;50.906;4.438;2023-07-22T07:29:04;16.70;99.90
19906;DHT22;10115;50.906;4.438;2023-07-22T07:31:29;16.80;99.90
19906;DHT22;10115;50.906;4.438;2023-07-22T07:33:55;16.60;99.90
19906;DHT22;10115;50.906;4.438;2023-07-22T07:36:21;16.70;99.90
19906;DHT22;10115;50.906;4.438;2023-07-22T07:38:47;16.70;99.90
19906;DHT22;10115;50.906;4.438;2023-07-22T07:41:13;16.70;99.90
19906;DHT22;10115;50.906;4.438;2023-07-22T07:43:42;16.50;99.90
19906;DHT22;10115;50.906;4.438;2023-07-22T07:46:24;16.60;99.90
19906;DHT22;10115;50.906;4.438;2023-07-22T07:48:52;16.50;99.90
19906;DHT22;10115;50.906;4.438;2023-07-22T07:51:19;16.40;99.90
19906;DHT22;10115;50.906;4.438;2023-07-22T07:53:46;16.30;99.90
19906;DHT22;10115;50.906;4.438;2023-07-22T07:56:17;16.20;99.90
19906;DHT22;10115;50.906;4.438;2023-07-22T07:58:43;16.10;99.90
19906;DHT22;10115;50.906;4.438;2023-07-22T08:01:09;16.10;99.90
19906;DHT22;10115;50.906;4.438;2023-07-22T08:03:36;16.20;99.90
19906;DHT22;10115;50.906;4.438;2023-07-22T08:06:02;16.30;99.90
19906;DHT22;10115;50.906;4.438;2023-07-22T08:08:28;16.40;99.90
19906;DHT22;10115;50.906;4.438;2023-07-22T08:11:00;16.50;99.90
19906;DHT22;10115;50.906;4.438;2023-07-22T08:13:26;16.70;99.90
19906;DHT22;10115;50.906;4.438;2023-07-22T08:15:53;16.90;99.90
19906;DHT22;10115;50.906;4.438;2023-07-22T08:18:19;17.10;99.90
19906;DHT22;10115;50.906;4.438;2023-07-22T08:20:45;17.20;99.90
19906;DHT22;10115;50.906;4.438;2023-07-22T08:23:13;17.20;99.90
19906;DHT22;10115;50.906;4.438;2023-07-22T08:25:39;17.40;99.90
19906;DHT22;10115;50.906;4.438;2023-07-22T08:28:05;17.60;99.90
19906;DHT22;10115;50.906;4.438;2023-07-22T08:30:30;17.50;99.90
19906;DHT22;10115;50.906;4.438;2023-07-22T08:32:56;17.50;99.90
19906;DHT22;10115;50.906;4.438;2023-07-22T08:35:22;17.40;99.90
19906;DHT22;10115;50.906;4.438;2023-07-22T08:37:47;17.40;99.90
19906;DHT22;10115;50.906;4.438;2023-07-22T08:40:13;17.50;99.90
19906;DHT22;10115;50.906;4.438;2023-07-22T08:42:40;17.70;99.90
19906;DHT22;10115;50.906;4.438;2023-07-22T08:45:09;17.70;99.90
19906;DHT22;10115;50.906;4.438;2023-07-22T08:47:47;17.80;99.90
19906;DHT22;10115;50.906;4.438;2023-07-22T08:50:16;17.80;99.90
19906;DHT22;10115;50.906;4.438;2023-07-22T08:52:45;17.60;99.90
19906;DHT22;10115;50.906;4.438;2023-07-22T08:55:11;17.70;99.90
19906;DHT22;10115;50.906;4.438;2023-07-22T08:57:37;17.80;99.90
19906;DHT22;10115;50.906;4.438;2023-07-22T09:00:04;17.70;99.90
19906;DHT22;10115;50.906;4.438;2023-07-22T09:02:33;17.90;99.90
19906;DHT22;10115;50.906;4.438;2023-07-22T09:05:00;18.10;99.90
19906;DHT22;10115;50.906;4.438;2023-07-22T09:07:26;18.30;99.90
19906;DHT22;10115;50.906;4.438;2023-07-22T09:09:52;18.30;99.90
19906;DHT22;10115;50.906;4.438;2023-07-22T09:12:20;18.10;99.90
19906;DHT22;10115;50.906;4.438;2023-07-22T09:14:47;18.20;99.90
19906;DHT22;10115;50.906;4.438;2023-07-22T09:17:13;18.20;99.90
19906;DHT22;10115;50.906;4.438;2023-07-22T09:19:39;18.50;99.90
19906;DHT22;10115;50.906;4.438;2023-07-22T09:22:04;18.60;99.90
19906;DHT22;10115;50.906;4.438;2023-07-22T09:24:30;18.60;99.90
19906;DHT22;10115;50.906;4.438;2023-07-22T09:26:57;18.70;99.90
19906;DHT22;10115;50.906;4.438;2023-07-22T09:29:37;18.90;99.90
19906;DHT22;10115;50.906;4.438;2023-07-22T09:32:04;19.00;99.90
19906;DHT22;10115;50.906;4.438;2023-07-22T09:34:30;19.00;99.90
19906;DHT22;10115;50.906;4.438;2023-07-22T09:36:58;19.00;99.90
19906;DHT22;10115;50.906;4.438;2023-07-22T09:39:26;19.30;99.90
19906;DHT22;10115;50.906;4.438;2023-07-22T09:41:51;19.40;99.90
19906;DHT22;10115;50.906;4.438;2023-07-22T09:44:21;19.50;99.90
19906;DHT22;10115;50.906;4.438;2023-07-22T09:46:48;19.70;99.90
19906;DHT22;10115;50.906;4.438;2023-07-22T09:49:16;19.70;99.90
19906;DHT22;10115;50.906;4.438;2023-07-22T09:51:42;19.50;99.90
19906;DHT22;10115;50.906;4.438;2023-07-22T09:54:08;19.70;99.90
19906;DHT22;10115;50.906;4.438;2023-07-22T09:56:54;19.50;99.90
19906;DHT22;10115;50.906;4.438;2023-07-22T09:59:21;19.40;99.90
19906;DHT22;10115;50.906;4.438;2023-07-22T10:01:48;19.60;99.90
19906;DHT22;10115;50.906;4.438;2023-07-22T10:04:16;19.40;99.90
19906;DHT22;10115;50.906;4.438;2023-07-22T10:06:42;19.50;99.90
19906;DHT22;10115;50.906;4.438;2023-07-22T10:09:11;19.60;99.90
19906;DHT22;10115;50.906;4.438;2023-07-22T10:11:37;19.80;99.90
19906;DHT22;10115;50.906;4.438;2023-07-22T10:14:04;19.90;99.90
19906;DHT22;10115;50.906;4.438;2023-07-22T10:16:30;20.00;99.90
19906;DHT22;10115;50.906;4.438;2023-07-22T10:18:57;19.70;99.90
19906;DHT22;10115;50.906;4.438;2023-07-22T10:21:24;19.80;99.90
19906;DHT22;10115;50.906;4.438;2023-07-22T10:23:51;20.00;99.90
19906;DHT22;10115;50.906;4.438;2023-07-22T10:26:18;20.20;99.90
19906;DHT22;10115;50.906;4.438;2023-07-22T10:28:45;20.30;99.90
19906;DHT22;10115;50.906;4.438;2023-07-22T10:31:15;20.40;99.90
19906;DHT22;10115;50.906;4.438;2023-07-22T10:33:46;20.70;99.90
19906;DHT22;10115;50.906;4.438;2023-07-22T10:36:16;20.70;99.90
19906;DHT22;10115;50.906;4.438;2023-07-22T10:38:43;20.80;99.90
19906;DHT22;10115;50.906;4.438;2023-07-22T10:41:16;20.50;99.90
19906;DHT22;10115;50.906;4.438;2023-07-22T10:43:55;20.80;99.90
19906;DHT22;10115;50.906;4.438;2023-07-22T10:46:32;21.00;99.90
19906;DHT22;10115;50.906;4.438;2023-07-22T10:49:13;21.10;99.90
19906;DHT22;10115;50.906;4.438;2023-07-22T10:51:39;21.10;99.90
19906;DHT22;10115;50.906;4.438;2023-07-22T10:54:12;21.40;99.90
19906;DHT22;10115;50.906;4.438;2023-07-22T10:56:43;21.50;99.90
19906;DHT22;10115;50.906;4.438;2023-07-22T10:59:12;20.90;99.90
19906;DHT22;10115;50.906;4.438;2023-07-22T11:01:43;20.60;99.90
19906;DHT22;10115;50.906;4.438;2023-07-22T11:04:22;20.70;99.90
19906;DHT22;10115;50.906;4.438;2023-07-22T11:06:58;20.80;99.90
19906;DHT22;10115;50.906;4.438;2023-07-22T11:12:01;21.10;99.90
19906;DHT22;10115;50.906;4.438;2023-07-22T11:14:29;21.20;99.90
19906;DHT22;10115;50.906;4.438;2023-07-22T11:16:57;21.20;99.90
19906;DHT22;10115;50.906;4.438;2023-07-22T11:19:24;21.00;99.90
19906;DHT22;10115;50.906;4.438;2023-07-22T11:21:51;21.20;99.90
19906;DHT22;10115;50.906;4.438;2023-07-22T11:24:18;21.10;99.90
19906;DHT22;10115;50.906;4.438;2023-07-22T11:26:45;20.70;99.90
19906;DHT22;10115;50.906;4.438;2023-07-22T11:29:11;20.90;99.90
19906;DHT22;10115;50.906;4.438;2023-07-22T11:31:39;20.80;99.90
19906;DHT22;10115;50.906;4.438;2023-07-22T11:34:19;20.70;99.90
19906;DHT22;10115;50.906;4.438;2023-07-22T11:36:47;20.90;99.90
19906;DHT22;10115;50.906;4.438;2023-07-22T11:39:15;20.90;99.90
19906;DHT22;10115;50.906;4.438;2023-07-22T11:41:42;21.10;99.90
19906;DHT22;10115;50.906;4.438;2023-07-22T11:44:09;21.20;99.90
19906;DHT22;10115;50.906;4.438;2023-07-22T11:49:28;21.50;99.90
19906;DHT22;10115;50.906;4.438;2023-07-22T11:52:05;21.60;99.90
19906;DHT22;10115;50.906;4.438;2023-07-22T11:54:36;21.30;99.90
19906;DHT22;10115;50.906;4.438;2023-07-22T11:57:20;20.90;99.90
19906;DHT22;10115;50.906;4.438;2023-07-22T11:59:52;21.10;99.90
19906;DHT22;10115;50.906;4.438;2023-07-22T12:02:26;21.30;99.90
19906;DHT22;10115;50.906;4.438;2023-07-22T12:05:00;20.90;99.90
19906;DHT22;10115;50.906;4.438;2023-07-22T12:07:33;21.00;99.90
19906;DHT22;10115;50.906;4.438;2023-07-22T12:10:04;21.40;99.90
19906;DHT22;10115;50.906;4.438;2023-07-22T12:12:45;21.40;99.90
19906;DHT22;10115;50.906;4.438;2023-07-22T12:15:18;21.70;99.90
19906;DHT22;10115;50.906;4.438;2023-07-22T12:17:45;21.70;99.90
19906;DHT22;10115;50.906;4.438;2023-07-22T12:20:11;21.60;99.90
19906;DHT22;10115;50.906;4.438;2023-07-22T12:22:37;21.70;99.90
19906;DHT22;10115;50.906;4.438;2023-07-22T12:25:05;22.00;99.90
19906;DHT22;10115;50.906;4.438;2023-07-22T12:27:31;21.50;99.90
19906;DHT22;10115;50.906;4.438;2023-07-22T12:29:56;21.40;99.90
19906;DHT22;10115;50.906;4.438;2023-07-22T12:32:22;21.60;99.90
19906;DHT22;10115;50.906;4.438;2023-07-22T12:34:47;21.80;99.90
19906;DHT22;10115;50.906;4.438;2023-07-22T12:37:13;22.00;99.90
19906;DHT22;10115;50.906;4.438;2023-07-22T12:39:39;21.80;99.90
19906;DHT22;10115;50.906;4.438;2023-07-22T12:42:05;21.60;99.90
19906;DHT22;10115;50.906;4.438;2023-07-22T12:44:30;21.80;99.90
19906;DHT22;10115;50.906;4.438;2023-07-22T12:46:56;22.20;99.90
19906;DHT22;10115;50.906;4.438;2023-07-22T12:49:22;22.20;99.90
19906;DHT22;10115;50.906;4.438;2023-07-22T12:51:47;22.50;99.90
19906;DHT22;10115;50.906;4.438;2023-07-22T12:54:13;22.90;99.90
19906;DHT22;10115;50.906;4.438;2023-07-22T12:56:39;22.60;99.90
19906;DHT22;10115;50.906;4.438;2023-07-22T12:59:04;22.60;99.90
19906;DHT22;10115;50.906;4.438;2023-07-22T13:01:30;22.80;99.90
19906;DHT22;10115;50.906;4.438;2023-07-22T13:03:56;22.50;99.90
19906;DHT22;10115;50.906;4.438;2023-07-22T13:06:21;22.60;99.90
19906;DHT22;10115;50.906;4.438;2023-07-22T13:08:47;22.30;99.90
19906;DHT22;10115;50.906;4.438;2023-07-22T13:11:12;22.40;99.90
19906;DHT22;10115;50.906;4.438;2023-07-22T13:13:38;22.70;99.90
19906;DHT22;10115;50.906;4.438;2023-07-22T13:16:04;22.20;99.90
19906;DHT22;10115;50.906;4.438;2023-07-22T13:18:29;22.20;99.90
19906;DHT22;10115;50.906;4.438;2023-07-22T13:20:55;21.80;99.90
19906;DHT22;10115;50.906;4.438;2023-07-22T13:23:21;21.70;99.90
19906;DHT22;10115;50.906;4.438;2023-07-22T13:25:46;21.60;99.90
19906;DHT22;10115;50.906;4.438;2023-07-22T13:28:12;21.70;99.90
19906;DHT22;10115;50.906;4.438;2023-07-22T13:30:38;21.60;99.90
19906;DHT22;10115;50.906;4.438;2023-07-22T13:33:03;21.70;99.90
19906;DHT22;10115;50.906;4.438;2023-07-22T13:35:29;21.90;99.90
19906;DHT22;10115;50.906;4.438;2023-07-22T13:37:55;22.20;99.90
19906;DHT22;10115;50.906;4.438;2023-07-22T13:40:21;22.20;99.90
19906;DHT22;10115;50.906;4.438;2023-07-22T13:42:47;22.20;99.90
19906;DHT22;10115;50.906;4.438;2023-07-22T13:45:13;22.20;99.90
19906;DHT22;10115;50.906;4.438;2023-07-22T13:47:38;21.90;99.90
19906;DHT22;10115;50.906;4.438;2023-07-22T13:50:04;21.60;99.90
19906;DHT22;10115;50.906;4.438;2023-07-22T13:52:30;21.50;99.90
19906;DHT22;10115;50.906;4.438;2023-07-22T13:54:56;21.60;99.90
19906;DHT22;10115;50.906;4.438;2023-07-22T13:57:21;21.40;99.90
19906;DHT22;10115;50.906;4.438;2023-07-22T13:59:47;21.10;99.90
19906;DHT22;10115;50.906;4.438;2023-07-22T14:02:13;20.80;99.90
19906;DHT22;10115;50.906;4.438;2023-07-22T14:04:38;20.80;99.90
19906;DHT22;10115;50.906;4.438;2023-07-22T14:07:04;20.80;99.90
19906;DHT22;10115;50.906;4.438;2023-07-22T14:09:30;20.70;99.90
19906;DHT22;10115;50.906;4.438;2023-07-22T14:11:56;20.60;99.90
19906;DHT22;10115;50.906;4.438;2023-07-22T14:14:21;20.50;99.90
19906;DHT22;10115;50.906;4.438;2023-07-22T14:16:56;20.60;99.90
19906;DHT22;10115;50.906;4.438;2023-07-22T14:19:23;20.60;99.90
19906;DHT22;10115;50.906;4.438;2023-07-22T14:21:49;20.60;99.90
19906;DHT22;10115;50.906;4.438;2023-07-22T14:24:14;20.50;99.90
19906;DHT22;10115;50.906;4.438;2023-07-22T14:26:40;20.40;99.90
19906;DHT22;10115;50.906;4.438;2023-07-22T14:29:06;20.40;99.90
19906;DHT22;10115;50.906;4.438;2023-07-22T14:31:31;20.40;99.90
19906;DHT22;10115;50.906;4.438;2023-07-22T14:33:57;20.50;99.90
19906;DHT22;10115;50.906;4.438;2023-07-22T14:36:23;20.50;99.90
19906;DHT22;10115;50.906;4.438;2023-07-22T14:38:49;20.40;99.90
19906;DHT22;10115;50.906;4.438;2023-07-22T14:41:15;20.40;99.90
19906;DHT22;10115;50.906;4.438;2023-07-22T14:43:41;20.40;99.90
19906;DHT22;10115;50.906;4.438;2023-07-22T14:46:06;20.50;99.90
19906;DHT22;10115;50.906;4.438;2023-07-22T14:48:32;20.60;99.90
19906;DHT22;10115;50.906;4.438;2023-07-22T14:50:58;20.60;99.90
19906;DHT22;10115;50.906;4.438;2023-07-22T14:53:23;20.50;99.90
19906;DHT22;10115;50.906;4.438;2023-07-22T14:55:49;20.70;99.90
19906;DHT22;10115;50.906;4.438;2023-07-22T14:58:15;20.90;99.90
19906;DHT22;10115;50.906;4.438;2023-07-22T15:00:40;20.90;99.90
19906;DHT22;10115;50.906;4.438;2023-07-22T15:03:06;20.90;99.90
19906;DHT22;10115;50.906;4.438;2023-07-22T15:05:31;21.10;99.90
19906;DHT22;10115;50.906;4.438;2023-07-22T15:07:57;21.20;99.90
19906;DHT22;10115;50.906;4.438;2023-07-22T15:10:24;21.40;99.90
19906;DHT22;10115;50.906;4.438;2023-07-22T15:12:49;21.40;99.90
19906;DHT22;10115;50.906;4.438;2023-07-22T15:15:15;21.40;99.90
19906;DHT22;10115;50.906;4.438;2023-07-22T15:17:41;21.40;99.90
19906;DHT22;10115;50.906;4.438;2023-07-22T15:20:07;21.50;99.90
19906;DHT22;10115;50.906;4.438;2023-07-22T15:22:33;21.50;99.90
19906;DHT22;10115;50.906;4.438;2023-07-22T15:24:58;21.40;99.90
19906;DHT22;10115;50.906;4.438;2023-07-22T15:27:24;21.30;99.90
19906;DHT22;10115;50.906;4.438;2023-07-22T15:29:49;21.10;99.90
19906;DHT22;10115;50.906;4.438;2023-07-22T15:32:15;21.10;99.90